Taganrog, Russia
Current Conditions -  °F | °C
As of 11:30 AM on Thursday 23 Oct 2014 (Local Time) from URRR Reporting Station
Overcast Overcast  
Wind Chill: 32°   Ceiling: 900
Heat Index: 41°   Visibility: 4mi
Dew Point: 39°   Wind: 20mph
Humidity: 93%   Direction: 60°ENE
Pressure: 30"   Gusts: 27mph
Location:  47.22°N, 38.91°E
Report Text: URRR 230830Z 06009G12MPS 6000 OVC009 05/04 Q1016 04CLRD70 TEMPO0300 FG BKN002
Loading
Personal Weather Stations






























Interactive Weather Map
Tropical Storm Tracking
New forecast layout! Learn more

10-Day Weather Forecast

Advertisements
Track Severe Weather on mobile